VIDP Airport Information

Runway Information
Runway 09 Length 9229 ft width 150 ft
Elevation 717 ft Threshold 0 ft Heading 92
Runway 27 Length 9229 ft Width 150 ft
Elevation 750 ft Threshold 499 ft Heading 272
Runway 10 Length 12500 ft width 150 ft
Elevation 719 ft Threshold 0 ft Heading 105
Runway 28 Length 12500 ft Width 150 ft
Elevation 777 ft Threshold 0 ft Heading 285
Runway 11 Length 14534 ft width 197 ft
Elevation 720 ft Threshold 3166 ft Heading 103
Runway 29 Length 14534 ft Width 197 ft
Elevation 776 ft Threshold 4790 ft Heading 293
Airport Frequencies
Type APP Name DELHI APP Frequency 126.35 MHZ
Type AREA CONTR Name DELHI CONT Frequency 120.9 MHZ
Type AREA CONTR Name DELHI CONT Frequency 124.55 MHZ
Type ATIS Name ATIS Frequency 126.4 MHZ
Type CLD Name Clearance Frequency 121.95 MHZ
Type GND Name DELHI GND Frequency 121.9 MHZ
Type TWR Name DELHI TWR Frequency 118.1 MHZ
Type TWR Name DELHI TWR Frequency 118.25 MHZ
Type TWR Name DELHI TWR Frequency 118.75 MHZ
Airport Navaids
Type NDB Name Delhi Frequency 202 KHZ
Type NDB Name Delhi Frequency 274 KHZ
Type VOR-DME Name Delhi Frequency 116100 KHZ
Type NDB Name Delhi Frequency 320 KHZ
Type NDB Name Delhi Frequency 303 KHZ
Airport Weather Information & NOTAM
ADDS - METARS form results

(1706 UTC 07 May 2021)
Data provider http://aviationweather.gov/metar/data/
 
METAR text: VIDP 071700Z 02004KT 3500 HZ FEW100 30/16 Q1010 NOSIG
Conditions at: VIDP (INDIRA GANDHI/DE, IN) observed 1700 UTC 07 May 2021
Temperature: 30.0°C (86°F)
Dewpoint: 16.0°C (61°F) [RH = 43%]
Pressure (altimeter): 29.82 inches Hg (1010.0 mb)
Winds: from the NNE (20 degrees) at 5 MPH (4 knots; 2.1 m/s)
Visibility: 2.17 miles (3.49 km)
Ceiling: at least 12,000 feet AGL
Clouds: few clouds at 10000 feet AGL
Weather: HZ  (haze)

METAR text: VIDP 071630Z 04004KT 3500 HZ FEW100 31/16 Q1010 NOSIG
Conditions at: VIDP (INDIRA GANDHI/DE, IN) observed 1630 UTC 07 May 2021
Temperature: 31.0°C (88°F)
Dewpoint: 16.0°C (61°F) [RH = 40%]
Pressure (altimeter): 29.82 inches Hg (1010.0 mb)
Winds: from the NE (40 degrees) at 5 MPH (4 knots; 2.1 m/s)
Visibility: 2.17 miles (3.49 km)
Ceiling: at least 12,000 feet AGL
Clouds: few clouds at 10000 feet AGL
Weather: HZ  (haze)

Forecast for: VIDP (INDIRA GANDHI/DE, IN)
Text: TAF VIDP 071100Z 0712/0721 03008KT 3500 HZ FEW040 SCT100
Forecast period: 1200 to 1900 UTC 07 May 2021
Forecast type: FROM: standard forecast or significant change
Winds: from the NNE (30 degrees) at 9 MPH (8 knots; 4.1 m/s)
Visibility: 2.17 miles (3.49 km)
Ceiling: at least 12,000 feet AGL
Clouds: few clouds at 4000 feet AGL
scattered clouds at 10000 feet AGL
Weather: HZ  (haze)
Text: BECMG 0719/0721 00000KT 2500 HZ FEW100
Forecast period: 1900 to 2100 UTC 07 May 2021
Forecast type: BECOMING: Conditions expected to become as follows by 2100 UTC 07 May 2021
Winds: calm
Visibility: 1.55 miles (2.49 km)
Ceiling: at least 12,000 feet AGL
Clouds: few clouds at 10000 feet AGL
Weather: HZ  (haze)